createdAt,value
2019-05-06T07:12:07.250Z,18.25
2019-05-06T07:13:03.928Z,18.25
2019-05-06T07:14:02.647Z,18.25
2019-05-06T07:15:02.450Z,18.25
2019-05-06T07:15:59.323Z,18.25
2019-05-06T07:16:56.035Z,18.25
2019-05-06T07:17:52.762Z,18.25
2019-05-06T07:18:49.466Z,18.25
2019-05-06T07:19:52.706Z,18.19
2019-05-06T07:21:08.991Z,18.19
2019-05-06T07:22:06.994Z,18.19
2019-05-06T07:23:22.589Z,18.12
2019-05-06T07:24:19.285Z,18.06
2019-05-06T07:25:16.003Z,18.06
2019-05-06T07:26:14.406Z,18.00
2019-05-06T07:27:17.641Z,17.94
2019-05-06T07:28:14.338Z,17.94
2019-05-06T07:29:16.838Z,17.87
2019-05-06T07:30:12.204Z,17.81
2019-05-06T07:31:18.779Z,17.81
2019-05-06T07:32:06.711Z,17.75
2019-05-06T07:33:03.744Z,17.75
2019-05-06T07:34:02.503Z,17.69
2019-05-06T07:34:59.073Z,17.69
2019-05-06T07:35:55.792Z,17.62
2019-05-06T07:36:52.726Z,17.62
2019-05-06T07:37:49.506Z,17.62
2019-05-06T07:38:49.110Z,17.56
2019-05-06T07:39:45.834Z,17.56
2019-05-06T07:40:44.346Z,17.56
2019-05-06T07:41:48.230Z,17.56
2019-05-06T07:42:47.210Z,17.56
2019-05-06T07:44:06.629Z,17.56
2019-05-06T07:45:22.058Z,17.87
2019-05-06T07:46:47.599Z,22.62
2019-05-06T07:47:56.277Z,25.12
2019-05-06T07:48:52.999Z,26.06
2019-05-06T07:49:49.729Z,27.62
2019-05-06T07:50:49.126Z,29.12
2019-05-06T07:51:44.950Z,30.19
2019-05-06T07:53:02.371Z,30.81
2019-05-06T07:53:59.158Z,31.37
2019-05-06T07:54:55.883Z,31.94
2019-05-06T07:55:52.596Z,32.50
2019-05-06T07:56:49.300Z,33.06
2019-05-06T07:57:46.009Z,33.44
2019-05-06T07:58:43.417Z,33.69
2019-05-06T07:59:42.370Z,33.81
2019-05-06T08:00:38.975Z,33.94
2019-05-06T08:01:35.790Z,33.75
2019-05-06T08:02:32.501Z,33.25
2019-05-06T08:03:29.220Z,32.50
2019-05-06T08:04:25.931Z,31.50
2019-05-06T08:05:22.669Z,30.37
2019-05-06T08:06:19.377Z,29.19
2019-05-06T08:07:16.083Z,28.69
2019-05-06T08:08:13.039Z,29.31
2019-05-06T08:09:09.867Z,30.69
2019-05-06T08:10:06.578Z,32.31
2019-05-06T08:11:03.285Z,34.06
2019-05-06T08:11:59.994Z,35.69
2019-05-06T08:12:56.729Z,36.88
2019-05-06T08:13:53.432Z,37.25
2019-05-06T08:14:52.192Z,37.06
2019-05-06T08:15:48.696Z,36.75
2019-05-06T08:16:56.013Z,36.38
2019-05-06T08:17:52.713Z,35.88
2019-05-06T08:18:49.421Z,35.44
2019-05-06T08:19:46.116Z,34.94
2019-05-06T08:20:42.863Z,34.44
2019-05-06T08:21:42.787Z,33.88
2019-05-06T08:22:57.796Z,33.19
2019-05-06T08:23:54.513Z,32.19
2019-05-06T08:24:53.204Z,31.37
2019-05-06T08:25:52.786Z,30.50
2019-05-06T08:26:49.227Z,29.75
2019-05-06T08:27:45.939Z,29.69
2019-05-06T08:28:44.540Z,30.44
2019-05-06T08:29:42.444Z,31.81
2019-05-06T08:30:39.405Z,33.44
2019-05-06T08:31:36.106Z,34.69
2019-05-06T08:32:32.827Z,35.38
2019-05-06T08:33:29.531Z,35.63
2019-05-06T08:34:26.226Z,35.50
2019-05-06T08:35:22.940Z,35.19
2019-05-06T08:36:39.161Z,34.81
2019-05-06T08:37:36.332Z,34.25
2019-05-06T08:38:53.102Z,33.81
2019-05-06T08:39:49.684Z,33.06
2019-05-06T08:40:46.394Z,32.50
2019-05-06T08:41:43.132Z,31.87
2019-05-06T08:42:42.371Z,31.19
2019-05-06T08:43:38.376Z,30.50
2019-05-06T08:44:35.072Z,29.87
2019-05-06T08:45:32.492Z,29.50
2019-05-06T08:46:29.371Z,29.81
2019-05-06T08:47:26.058Z,30.75
2019-05-06T08:48:22.774Z,32.19
2019-05-06T08:49:19.486Z,33.63
2019-05-06T08:50:29.963Z,34.75
2019-05-06T08:51:38.791Z,35.31
2019-05-06T08:53:05.041Z,35.31
2019-05-06T08:54:13.381Z,34.81
2019-05-06T08:55:10.186Z,34.38
2019-05-06T08:56:08.914Z,33.94
2019-05-06T08:57:05.654Z,33.44
2019-05-06T08:58:02.920Z,32.94
2019-05-06T08:58:59.877Z,32.38
2019-05-06T08:59:56.590Z,31.81
2019-05-06T09:01:02.721Z,31.25
2019-05-06T09:01:59.526Z,30.69
2019-05-06T09:02:56.243Z,30.19
2019-05-06T09:04:06.354Z,29.81
2019-05-06T09:04:51.809Z,29.44
2019-05-06T09:05:54.431Z,29.12
2019-05-06T09:06:53.138Z,28.81
2019-05-06T09:07:49.699Z,28.44
2019-05-06T09:08:46.408Z,28.12
2019-05-06T09:09:43.114Z,27.87
2019-05-06T09:10:39.833Z,27.56
2019-05-06T09:11:36.542Z,27.31
2019-05-06T09:12:33.277Z,27.13
2019-05-06T09:13:32.538Z,26.94
2019-05-06T09:14:28.498Z,26.75
2019-05-06T09:15:25.209Z,26.56
2019-05-06T09:16:22.453Z,26.50
2019-05-06T09:17:19.317Z,26.37
2019-05-06T09:18:16.034Z,26.25
2019-05-06T09:19:12.970Z,26.19
2019-05-06T09:20:09.882Z,26.06
2019-05-06T09:21:06.585Z,26.00
2019-05-06T09:22:03.284Z,25.94
2019-05-06T09:22:59.998Z,25.88
2019-05-06T09:23:56.715Z,25.75
2019-05-06T09:24:53.425Z,25.69
2019-05-06T09:25:50.151Z,25.62
2019-05-06T09:27:12.301Z,25.50
2019-05-06T09:28:18.000Z,25.44
2019-05-06T09:29:18.567Z,25.31
2019-05-06T09:30:22.939Z,25.25
2019-05-06T09:31:33.441Z,25.19
2019-05-06T09:32:40.179Z,25.06
2019-05-06T09:33:42.928Z,25.00
2019-05-06T09:34:47.492Z,24.94
2019-05-06T09:35:44.210Z,24.87
2019-05-06T09:36:51.035Z,24.81
2019-05-06T09:37:39.455Z,24.75
2019-05-06T09:38:36.164Z,24.63
2019-05-06T09:39:32.894Z,24.56
2019-05-06T09:40:31.777Z,24.50
2019-05-06T09:41:28.101Z,24.44
2019-05-06T09:42:24.821Z,24.37
2019-05-06T09:43:22.299Z,24.31
2019-05-06T09:44:19.076Z,24.25
2019-05-06T09:45:15.957Z,24.25
2019-05-06T09:46:12.986Z,24.19
2019-05-06T09:47:13.715Z,24.12
2019-05-06T09:48:15.626Z,24.06
2019-05-06T09:49:16.201Z,24.00
2019-05-06T09:50:14.557Z,23.94
2019-05-06T09:51:13.057Z,23.87
2019-05-06T09:52:12.797Z,23.81
2019-05-06T09:53:13.079Z,23.75
2019-05-06T09:54:32.287Z,23.69
2019-05-06T09:55:57.771Z,23.62
2019-05-06T09:57:02.433Z,23.56
2019-05-06T09:58:06.264Z,23.50
2019-05-06T09:59:02.969Z,23.44
2019-05-06T10:00:03.603Z,23.38
2019-05-06T10:00:59.225Z,23.38
2019-05-06T10:01:55.941Z,23.31
2019-05-06T10:02:52.849Z,23.25
2019-05-06T10:03:49.571Z,23.25
2019-05-06T10:04:46.289Z,23.19
2019-05-06T10:05:43.010Z,23.12
2019-05-06T10:06:54.875Z,23.06
2019-05-06T10:07:38.242Z,23.06
2019-05-06T10:08:34.947Z,23.00
2019-05-06T10:09:32.672Z,22.94
2019-05-06T10:10:29.530Z,22.87
2019-05-06T10:11:26.237Z,22.87
2019-05-06T10:12:22.957Z,22.81
2019-05-06T10:13:19.675Z,22.81
2019-05-06T10:14:16.379Z,22.75
2019-05-06T10:15:13.116Z,22.69
2019-05-06T10:16:09.858Z,22.69
2019-05-06T10:17:06.561Z,22.62
2019-05-06T10:18:12.657Z,22.62
2019-05-06T10:19:08.286Z,22.56
2019-05-06T10:20:04.997Z,22.50
2019-05-06T10:21:01.709Z,22.50
2019-05-06T10:21:58.422Z,22.44
2019-05-06T10:22:55.130Z,22.44
2019-05-06T10:23:52.863Z,22.37
2019-05-06T10:24:52.141Z,22.31
2019-05-06T10:25:48.298Z,22.31
2019-05-06T10:26:49.380Z,22.25
2019-05-06T10:27:48.389Z,22.25
2019-05-06T10:28:58.771Z,22.19
2019-05-06T10:30:03.234Z,22.19
2019-05-06T10:31:02.036Z,22.13
2019-05-06T10:32:12.050Z,22.13
2019-05-06T10:33:11.897Z,22.06
2019-05-06T10:34:13.932Z,22.00
2019-05-06T10:35:10.429Z,22.00
2019-05-06T10:36:07.199Z,21.94
2019-05-06T10:37:12.585Z,21.94
2019-05-06T10:38:03.077Z,21.87
2019-05-06T10:38:59.716Z,21.87
2019-05-06T10:39:56.428Z,21.81
2019-05-06T10:41:01.033Z,21.81
2019-05-06T10:41:55.135Z,21.75
2019-05-06T10:42:52.318Z,21.75
2019-05-06T10:43:49.250Z,21.69
2019-05-06T10:44:45.954Z,21.69
2019-05-06T10:45:42.755Z,21.69
2019-05-06T10:46:39.439Z,21.62
2019-05-06T10:47:36.148Z,21.62
2019-05-06T10:48:32.864Z,21.56
2019-05-06T10:49:29.569Z,21.56
2019-05-06T10:50:28.036Z,21.50
2019-05-06T10:51:32.379Z,21.50
2019-05-06T10:52:33.628Z,21.44
2019-05-06T10:53:30.335Z,21.44
2019-05-06T10:54:27.043Z,21.44
2019-05-06T10:55:23.747Z,21.37
2019-05-06T10:56:56.920Z,21.37
2019-05-06T10:57:52.943Z,21.37
2019-05-06T10:58:49.031Z,21.31
2019-05-06T10:59:45.734Z,21.31
2019-05-06T11:00:42.620Z,21.25
2019-05-06T11:01:42.657Z,21.25
2019-05-06T11:02:58.468Z,21.25
2019-05-06T11:03:55.176Z,21.19
2019-05-06T11:04:52.975Z,21.19
2019-05-06T11:05:49.795Z,21.19
2019-05-06T11:06:46.513Z,21.12
2019-05-06T11:07:43.267Z,21.12
2019-05-06T11:08:42.006Z,21.12
2019-05-06T11:09:38.450Z,21.06
2019-05-06T11:10:40.785Z,21.06
2019-05-06T11:11:38.429Z,21.06
2019-05-06T11:12:32.605Z,21.00
2019-05-06T11:13:29.385Z,21.00
2019-05-06T11:14:26.099Z,21.00
2019-05-06T11:15:23.439Z,20.94
2019-05-06T11:16:23.474Z,20.94
2019-05-06T11:17:18.724Z,20.94
2019-05-06T11:18:15.462Z,20.88
2019-05-06T11:19:13.364Z,20.88
2019-05-06T11:20:13.241Z,20.88
2019-05-06T11:21:08.789Z,20.88
2019-05-06T11:22:05.506Z,20.81
2019-05-06T11:23:02.317Z,20.81
2019-05-06T11:23:58.957Z,20.81
2019-05-06T11:24:55.666Z,20.81
2019-05-06T11:25:52.727Z,20.75
2019-05-06T11:26:49.571Z,20.75
2019-05-06T11:27:46.269Z,20.75
2019-05-06T11:28:55.059Z,20.75
2019-05-06T11:29:53.094Z,20.69
2019-05-06T11:31:09.386Z,20.69
2019-05-06T11:32:14.311Z,20.62
2019-05-06T11:33:28.702Z,20.62
2019-05-06T11:34:44.935Z,20.62
2019-05-06T11:36:03.515Z,20.62
2019-05-06T11:37:18.375Z,20.56
2019-05-06T11:38:16.430Z,20.56
2019-05-06T11:39:14.228Z,20.50
2019-05-06T11:40:16.589Z,20.50
2019-05-06T11:41:09.609Z,20.50
2019-05-06T11:42:25.354Z,20.50
2019-05-06T11:43:04.805Z,20.44
2019-05-06T11:44:01.519Z,20.44
2019-05-06T11:44:58.235Z,20.44
2019-05-06T11:45:54.946Z,20.44
2019-05-06T11:46:52.337Z,20.37
2019-05-06T11:47:49.174Z,20.37
2019-05-06T11:48:45.878Z,20.37
2019-05-06T11:49:44.141Z,20.37
2019-05-06T11:50:42.782Z,20.37
2019-05-06T11:51:39.550Z,20.31
2019-05-06T11:52:36.261Z,20.31
2019-05-06T11:53:32.968Z,20.31
2019-05-06T11:54:29.689Z,20.31
2019-05-06T11:55:30.854Z,20.31
2019-05-06T11:56:24.928Z,20.25
2019-05-06T11:57:23.190Z,20.25
2019-05-06T11:58:43.197Z,20.25
2019-05-06T11:59:39.976Z,20.19
2019-05-06T12:00:39.533Z,20.19
2019-05-06T12:01:43.479Z,20.19
2019-05-06T12:02:42.162Z,20.19
2019-05-06T12:03:38.714Z,20.19
2019-05-06T12:04:35.431Z,20.19
2019-05-06T12:05:33.006Z,20.19
2019-05-06T12:06:29.854Z,20.19
2019-05-06T12:07:26.606Z,20.19
2019-05-06T12:08:23.266Z,20.19
2019-05-06T12:09:22.107Z,20.19
2019-05-06T12:10:18.478Z,20.25
2019-05-06T12:11:15.218Z,20.75
2019-05-06T12:12:12.746Z,22.87
2019-05-06T12:13:12.077Z,24.19
2019-05-06T12:14:08.239Z,24.69
2019-05-06T12:15:07.222Z,24.87
2019-05-06T12:16:03.472Z,24.87
2019-05-06T12:17:02.139Z,24.63
2019-05-06T12:17:58.710Z,25.31
2019-05-06T12:18:55.464Z,26.44
2019-05-06T12:19:52.788Z,27.44
2019-05-06T12:20:52.613Z,28.25
2019-05-06T12:21:48.383Z,28.75
2019-05-06T12:22:45.095Z,29.06
2019-05-06T12:23:44.904Z,29.31
2019-05-06T12:24:40.324Z,29.63
2019-05-06T12:25:37.039Z,30.25
2019-05-06T12:26:33.747Z,30.88
2019-05-06T12:27:45.942Z,31.44
2019-05-06T12:28:43.490Z,31.87
2019-05-06T12:29:42.815Z,32.13
2019-05-06T12:30:39.000Z,32.25
2019-05-06T12:31:35.701Z,32.38
2019-05-06T12:32:36.186Z,32.44
2019-05-06T12:33:42.689Z,32.50
2019-05-06T12:34:39.596Z,32.44
2019-05-06T12:35:38.007Z,32.25
2019-05-06T12:36:34.737Z,31.87
2019-05-06T12:37:31.445Z,31.44
2019-05-06T12:38:31.174Z,30.94
2019-05-06T12:39:29.739Z,30.31
2019-05-06T12:40:26.461Z,29.81
2019-05-06T12:41:23.161Z,29.31
2019-05-06T12:42:45.246Z,28.87
2019-05-06T12:43:45.858Z,28.19
2019-05-06T12:45:03.654Z,28.38
2019-05-06T12:46:14.101Z,30.00
2019-05-06T12:47:25.691Z,32.13
2019-05-06T12:48:34.991Z,33.88
2019-05-06T12:49:32.600Z,34.56
2019-05-06T12:50:29.518Z,34.69
2019-05-06T12:51:26.227Z,34.50
2019-05-06T12:52:23.220Z,34.19
2019-05-06T12:53:20.055Z,33.81
2019-05-06T12:54:16.796Z,33.38
2019-05-06T12:55:21.170Z,33.00
2019-05-06T12:56:12.415Z,32.56
2019-05-06T12:57:09.319Z,32.13
2019-05-06T12:58:06.026Z,31.69
2019-05-06T12:59:02.745Z,31.12
2019-05-06T12:59:59.526Z,30.62
2019-05-06T13:00:56.221Z,30.12
2019-05-06T13:01:54.074Z,29.63
2019-05-06T13:02:53.067Z,29.19
2019-05-06T13:03:49.571Z,28.81
2019-05-06T13:04:55.944Z,28.50
2019-05-06T13:05:44.830Z,28.19
2019-05-06T13:06:46.162Z,27.87
2019-05-06T13:07:44.358Z,27.62
2019-05-06T13:08:57.278Z,27.31
2019-05-06T13:09:42.340Z,27.06
2019-05-06T13:10:38.093Z,26.81
2019-05-06T13:11:34.818Z,26.62
2019-05-06T13:12:33.697Z,26.44
2019-05-06T13:13:30.045Z,26.25
2019-05-06T13:14:26.806Z,26.12
2019-05-06T13:15:24.414Z,26.06
2019-05-06T13:16:22.844Z,25.94
2019-05-06T13:17:25.035Z,25.88
2019-05-06T13:18:23.148Z,25.81
2019-05-06T13:19:22.616Z,25.69
2019-05-06T13:20:18.598Z,25.62
2019-05-06T13:21:15.295Z,25.50
2019-05-06T13:22:14.225Z,25.44
2019-05-06T13:23:24.530Z,25.37
2019-05-06T13:24:15.768Z,25.31
2019-05-06T13:25:13.615Z,25.25
2019-05-06T13:26:12.698Z,25.12
2019-05-06T13:27:12.590Z,25.06
2019-05-06T13:28:12.760Z,25.00
2019-05-06T13:29:28.781Z,24.94
2019-05-06T13:30:25.490Z,24.87
2019-05-06T13:31:25.604Z,24.81
2019-05-06T13:32:23.081Z,24.69
2019-05-06T13:33:28.445Z,24.69
2019-05-06T13:34:25.311Z,24.56
2019-05-06T13:35:23.109Z,24.50
2019-05-06T13:36:22.406Z,24.44
2019-05-06T13:37:18.601Z,24.37
2019-05-06T13:38:15.325Z,24.31
2019-05-06T13:39:15.046Z,24.25
2019-05-06T13:40:11.092Z,24.25
2019-05-06T13:41:07.802Z,24.19
2019-05-06T13:42:04.510Z,24.12
2019-05-06T13:43:26.853Z,24.06
2019-05-06T13:44:23.555Z,24.00
2019-05-06T13:45:22.039Z,23.94
2019-05-06T13:46:23.573Z,23.87
2019-05-06T13:47:39.188Z,23.81
2019-05-06T13:48:42.536Z,23.75
2019-05-06T13:49:47.367Z,23.69
2019-05-06T13:50:44.830Z,23.62
2019-05-06T13:51:44.272Z,23.62
2019-05-06T13:52:42.586Z,23.56
2019-05-06T13:53:43.338Z,23.50
2019-05-06T13:54:37.883Z,23.44
2019-05-06T13:55:34.558Z,23.44
2019-05-06T13:56:33.103Z,23.38
2019-05-06T13:57:31.944Z,23.31
2019-05-06T13:58:28.342Z,23.31
2019-05-06T13:59:29.659Z,23.75
2019-05-06T14:00:23.550Z,24.00
2019-05-06T14:01:23.094Z,24.06
2019-05-06T14:02:43.823Z,24.19
2019-05-06T14:03:42.846Z,25.75
2019-05-06T14:04:39.158Z,27.69
2019-05-06T14:05:35.858Z,29.75
2019-05-06T14:06:32.594Z,31.50
2019-05-06T14:07:29.336Z,32.75
2019-05-06T14:08:26.069Z,33.38
2019-05-06T14:09:29.514Z,33.50
2019-05-06T14:10:22.254Z,33.31
2019-05-06T14:11:19.097Z,32.94
2019-05-06T14:12:15.812Z,32.50
2019-05-06T14:13:12.961Z,31.94
2019-05-06T14:14:12.282Z,31.25
2019-05-06T14:15:08.267Z,30.50
2019-05-06T14:16:04.992Z,29.75
2019-05-06T14:17:01.719Z,28.94
2019-05-06T14:17:58.445Z,28.19
2019-05-06T14:18:55.202Z,27.75
2019-05-06T14:19:53.385Z,28.12
2019-05-06T14:20:52.109Z,29.25
2019-05-06T14:21:48.801Z,30.81
2019-05-06T14:22:45.519Z,32.25
2019-05-06T14:23:42.223Z,33.19
2019-05-06T14:24:43.122Z,33.63
2019-05-06T14:25:58.365Z,33.56
2019-05-06T14:26:59.255Z,33.19
2019-05-06T14:27:58.611Z,32.75
2019-05-06T14:29:02.409Z,32.31
2019-05-06T14:30:04.927Z,31.87
2019-05-06T14:31:15.342Z,31.44
2019-05-06T14:32:14.731Z,31.00
2019-05-06T14:33:15.131Z,30.50
2019-05-06T14:34:11.900Z,30.06
2019-05-06T14:35:08.205Z,29.63
2019-05-06T14:36:04.938Z,29.19
2019-05-06T14:37:01.686Z,28.69
2019-05-06T14:37:58.414Z,28.31
2019-05-06T14:38:55.116Z,28.25
2019-05-06T14:39:58.926Z,28.75
2019-05-06T14:41:27.414Z,29.81
2019-05-06T14:42:24.239Z,31.81
2019-05-06T14:43:22.823Z,32.88
2019-05-06T14:44:19.480Z,33.38
2019-05-06T14:45:16.206Z,33.44
2019-05-06T14:46:12.942Z,33.25
2019-05-06T14:47:19.137Z,32.94
2019-05-06T14:48:15.884Z,32.50
2019-05-06T14:49:12.614Z,32.19
2019-05-06T14:50:09.343Z,31.81
2019-05-06T14:51:06.078Z,31.44
2019-05-06T14:52:02.981Z,31.06
2019-05-06T14:53:02.538Z,30.75
2019-05-06T14:53:58.221Z,30.31
2019-05-06T14:55:15.287Z,29.94
2019-05-06T14:56:32.144Z,29.50
2019-05-06T14:57:28.993Z,29.00
2019-05-06T14:58:25.703Z,28.62
2019-05-06T14:59:23.395Z,28.31
2019-05-06T15:00:22.897Z,28.06
2019-05-06T15:01:18.854Z,28.38
2019-05-06T15:02:15.886Z,29.12
2019-05-06T15:03:13.095Z,30.19
2019-05-06T15:04:12.286Z,31.31
2019-05-06T15:05:08.381Z,32.38
2019-05-06T15:06:05.118Z,33.06
2019-05-06T15:07:02.249Z,33.25
2019-05-06T15:07:59.096Z,33.13
2019-05-06T15:08:55.817Z,32.88
2019-05-06T15:10:07.535Z,32.63
2019-05-06T15:10:51.069Z,32.31
2019-05-06T15:11:47.789Z,32.06
2019-05-06T15:12:44.504Z,31.75
2019-05-06T15:13:42.704Z,31.44
2019-05-06T15:14:42.235Z,31.06
2019-05-06T15:15:38.126Z,30.69
2019-05-06T15:16:34.851Z,30.37
2019-05-06T15:17:32.883Z,30.00
2019-05-06T15:18:31.994Z,29.63
2019-05-06T15:19:28.676Z,29.25
2019-05-06T15:20:25.385Z,28.94
2019-05-06T15:21:37.195Z,28.62
2019-05-06T15:22:22.597Z,28.44
2019-05-06T15:23:19.154Z,28.81
2019-05-06T15:24:15.884Z,29.69
2019-05-06T15:25:13.088Z,30.81
2019-05-06T15:26:12.164Z,32.00
2019-05-06T15:27:08.520Z,33.00
2019-05-06T15:28:05.230Z,33.44
2019-05-06T15:29:03.290Z,33.44
2019-05-06T15:30:03.332Z,33.25
2019-05-06T15:31:07.596Z,32.94
2019-05-06T15:32:22.994Z,32.56
2019-05-06T15:33:22.476Z,32.25
2019-05-06T15:34:23.109Z,32.00
2019-05-06T15:35:32.787Z,31.69
2019-05-06T15:36:34.594Z,31.31
2019-05-06T15:37:42.459Z,30.94
2019-05-06T15:38:38.889Z,30.50
2019-05-06T15:39:35.602Z,30.12
2019-05-06T15:40:36.438Z,29.81
2019-05-06T15:41:32.269Z,29.50
2019-05-06T15:42:29.035Z,29.19
2019-05-06T15:43:25.747Z,28.87
2019-05-06T15:44:23.326Z,28.69
2019-05-06T15:45:21.925Z,28.44
2019-05-06T15:46:18.695Z,28.25
2019-05-06T15:47:15.407Z,28.06
2019-05-06T15:48:12.891Z,27.87
2019-05-06T15:49:09.754Z,27.69
2019-05-06T15:50:06.464Z,27.56
2019-05-06T15:51:03.207Z,27.37
2019-05-06T15:51:59.909Z,27.19
2019-05-06T15:52:56.633Z,27.06
2019-05-06T15:53:53.324Z,27.00
2019-05-06T15:54:52.288Z,26.87
2019-05-06T15:55:48.537Z,26.75
2019-05-06T15:56:45.247Z,26.69
2019-05-06T15:57:43.526Z,26.62
2019-05-06T15:58:42.351Z,26.50
2019-05-06T15:59:41.401Z,26.44
2019-05-06T16:00:37.453Z,26.37
2019-05-06T16:01:34.413Z,26.25
2019-05-06T16:02:31.179Z,26.19
2019-05-06T16:03:27.886Z,26.12
2019-05-06T16:04:24.608Z,26.06
2019-05-06T16:05:26.123Z,25.94
2019-05-06T16:06:19.863Z,25.88
2019-05-06T16:07:16.583Z,25.81
2019-05-06T16:08:13.289Z,25.75
2019-05-06T16:09:14.188Z,25.69
2019-05-06T16:10:08.559Z,25.62
2019-05-06T16:11:05.273Z,25.56
2019-05-06T16:12:02.982Z,25.50
2019-05-06T16:13:02.223Z,25.44
2019-05-06T16:13:58.398Z,25.37
2019-05-06T16:14:55.112Z,25.25
2019-05-06T16:15:53.198Z,25.25
2019-05-06T16:16:52.536Z,25.19
2019-05-06T16:17:48.593Z,25.12
2019-05-06T16:18:45.294Z,25.06
2019-05-06T16:19:42.718Z,25.00
2019-05-06T16:20:39.633Z,24.94
2019-05-06T16:21:36.352Z,24.87
2019-05-06T16:22:33.866Z,24.81
2019-05-06T16:23:54.966Z,24.75
2019-05-06T16:24:55.518Z,24.69
2019-05-06T16:25:52.490Z,24.63
2019-05-06T16:26:49.257Z,24.56
2019-05-06T16:27:50.951Z,24.50
2019-05-06T16:28:46.610Z,24.44
2019-05-06T16:29:43.355Z,24.37
2019-05-06T16:30:42.507Z,24.37
2019-05-06T16:31:38.580Z,24.31
2019-05-06T16:32:35.294Z,24.25
2019-05-06T16:33:32.943Z,24.19
2019-05-06T16:34:29.912Z,24.19
2019-05-06T16:35:26.645Z,24.12
2019-05-06T16:36:23.358Z,24.06
2019-05-06T16:37:22.133Z,24.00
2019-05-06T16:38:18.582Z,23.94
2019-05-06T16:39:15.297Z,23.94
2019-05-06T16:40:12.430Z,23.87
2019-05-06T16:41:13.067Z,23.81
2019-05-06T16:42:08.245Z,23.81
2019-05-06T16:43:04.954Z,23.75
2019-05-06T16:44:02.227Z,23.69
2019-05-06T16:44:58.970Z,23.69
2019-05-06T16:45:55.718Z,23.62
2019-05-06T16:46:52.426Z,23.56
2019-05-06T16:47:49.147Z,23.50
2019-05-06T16:48:45.857Z,23.50
2019-05-06T16:49:42.574Z,23.44
2019-05-06T16:50:39.281Z,23.44
2019-05-06T16:51:36.024Z,23.38
2019-05-06T16:52:33.699Z,23.31
2019-05-06T16:53:34.809Z,23.31
2019-05-06T16:54:29.160Z,23.25
2019-05-06T16:55:34.737Z,23.25
2019-05-06T16:56:35.829Z,23.19
2019-05-06T16:57:33.336Z,23.12
2019-05-06T16:58:32.953Z,23.12
2019-05-06T16:59:29.695Z,23.06
2019-05-06T17:00:28.209Z,23.00
2019-05-06T17:01:24.907Z,23.00
2019-05-06T17:02:26.696Z,22.94
2019-05-06T17:03:32.492Z,22.94
2019-05-06T17:04:46.329Z,22.87
2019-05-06T17:06:02.536Z,22.81
2019-05-06T17:06:59.250Z,22.75
2019-05-06T17:07:58.981Z,22.75
2019-05-06T17:08:54.507Z,22.75
2019-05-06T17:09:52.610Z,22.69
2019-05-06T17:10:49.482Z,22.62
2019-05-06T17:11:46.191Z,22.62
2019-05-06T17:12:42.895Z,22.56
2019-05-06T17:13:39.602Z,22.56
2019-05-06T17:14:36.311Z,22.56
2019-05-06T17:15:33.024Z,22.50
2019-05-06T17:16:29.732Z,22.50
2019-05-06T17:17:39.664Z,22.44
2019-05-06T17:18:24.983Z,22.37
2019-05-06T17:19:23.056Z,22.37
2019-05-06T17:20:19.801Z,22.37
2019-05-06T17:21:16.518Z,22.31
2019-05-06T17:22:13.227Z,22.25
2019-05-06T17:23:09.953Z,22.25
2019-05-06T17:24:06.661Z,22.25
2019-05-06T17:25:03.387Z,22.19
2019-05-06T17:26:00.094Z,22.19
2019-05-06T17:26:56.993Z,22.13
2019-05-06T17:27:55.509Z,22.13
2019-05-06T17:28:56.450Z,22.13
2019-05-06T17:29:59.372Z,22.06
2019-05-06T17:31:14.425Z,22.06
2019-05-06T17:32:26.238Z,22.00
2019-05-06T17:33:33.473Z,22.00
2019-05-06T17:34:36.190Z,21.94
2019-05-06T17:35:32.865Z,21.94
2019-05-06T17:36:32.540Z,21.94
2019-05-06T17:38:02.206Z,21.87
2019-05-06T17:38:59.180Z,21.81
2019-05-06T17:40:07.025Z,21.81
2019-05-06T17:40:54.402Z,21.81
2019-05-06T17:41:52.254Z,21.75
2019-05-06T17:42:49.026Z,21.75
2019-05-06T17:43:45.744Z,21.75
2019-05-06T17:44:42.922Z,21.69
2019-05-06T17:46:02.905Z,21.69
2019-05-06T17:47:20.166Z,21.62
2019-05-06T17:48:23.658Z,21.62
2019-05-06T17:49:23.659Z,21.62
2019-05-06T17:50:22.421Z,21.56
2019-05-06T17:51:21.857Z,21.56
2019-05-06T17:52:22.175Z,21.56
2019-05-06T17:53:18.654Z,21.50
2019-05-06T17:54:15.389Z,21.50
2019-05-06T17:55:12.114Z,21.50
2019-05-06T17:56:08.814Z,21.50
2019-05-06T17:57:05.525Z,21.44
2019-05-06T17:58:02.572Z,21.44
2019-05-06T17:58:59.330Z,21.44
2019-05-06T17:59:56.073Z,21.37
2019-05-06T18:00:52.887Z,21.37
2019-05-06T18:01:53.011Z,21.37
2019-05-06T18:02:49.229Z,21.31
2019-05-06T18:03:45.947Z,21.31
2019-05-06T18:04:43.170Z,21.31
2019-05-06T18:05:42.033Z,21.25
2019-05-06T18:06:38.478Z,21.25
2019-05-06T18:07:35.184Z,21.25
2019-05-06T18:08:33.473Z,21.19
2019-05-06T18:09:30.328Z,21.19
2019-05-06T18:10:27.043Z,21.19
2019-05-06T18:11:23.749Z,21.19
2019-05-06T18:12:20.467Z,21.19
2019-05-06T18:13:17.191Z,21.12
2019-05-06T18:14:13.903Z,21.12
2019-05-06T18:15:10.637Z,21.12
2019-05-06T18:16:07.349Z,21.12
2019-05-06T18:17:04.055Z,21.06
2019-05-06T18:18:02.186Z,21.06
2019-05-06T18:18:58.971Z,21.06
2019-05-06T18:19:55.687Z,21.06
2019-05-06T18:20:52.874Z,21.00
2019-05-06T18:21:49.749Z,21.00
2019-05-06T18:22:46.500Z,21.00
2019-05-06T18:23:43.252Z,20.94
2019-05-06T18:24:40.035Z,20.94
2019-05-06T18:25:36.727Z,20.94
2019-05-06T18:26:33.658Z,20.94
2019-05-06T18:27:32.548Z,20.88
2019-05-06T18:28:29.162Z,20.88
2019-05-06T18:29:25.861Z,20.88
2019-05-06T18:30:31.935Z,20.88
2019-05-06T18:31:22.142Z,20.81
2019-05-06T18:32:19.013Z,20.81
2019-05-06T18:33:15.717Z,20.81
2019-05-06T18:34:12.923Z,20.81
2019-05-06T18:35:09.754Z,20.81
2019-05-06T18:36:06.490Z,20.81
2019-05-06T18:37:03.430Z,20.75
2019-05-06T18:38:00.214Z,20.75
2019-05-06T18:38:56.931Z,20.75
2019-05-06T18:39:53.642Z,20.75
2019-05-06T18:40:50.354Z,20.69
2019-05-06T18:41:47.067Z,20.69
2019-05-06T18:42:43.778Z,20.69
2019-05-06T18:43:42.260Z,20.69
2019-05-06T18:44:39.021Z,20.69
2019-05-06T18:45:35.730Z,20.62
2019-05-06T18:46:32.851Z,20.62
2019-05-06T18:47:29.594Z,20.62
2019-05-06T18:48:30.975Z,20.62
2019-05-06T18:49:24.810Z,20.62
2019-05-06T18:50:22.054Z,20.56
2019-05-06T18:51:18.930Z,20.56
2019-05-06T18:52:15.661Z,20.56
2019-05-06T18:53:13.355Z,20.56
2019-05-06T18:54:12.260Z,20.50
2019-05-06T18:55:08.698Z,20.50
2019-05-06T18:56:05.420Z,20.50
2019-05-06T18:57:04.797Z,20.50
2019-05-06T18:58:02.244Z,20.50
2019-05-06T18:58:59.152Z,20.44
2019-05-06T18:59:55.860Z,20.44
2019-05-06T19:00:53.035Z,20.44
2019-05-06T19:01:49.897Z,20.44
2019-05-06T19:02:46.605Z,20.44
2019-05-06T19:03:56.501Z,20.37
2019-05-06T19:05:02.261Z,20.37
2019-05-06T19:05:59.160Z,20.37
2019-05-06T19:07:09.403Z,20.37
2019-05-06T19:07:54.403Z,20.37
2019-05-06T19:09:10.596Z,20.31
2019-05-06T19:10:12.867Z,20.31
2019-05-06T19:11:11.918Z,20.31
2019-05-06T19:12:08.689Z,20.31
2019-05-06T19:13:07.062Z,20.31
2019-05-06T19:14:03.916Z,20.31
2019-05-06T19:15:03.132Z,20.25
2019-05-06T19:15:59.140Z,20.25
2019-05-06T19:16:55.837Z,20.25
2019-05-06T19:17:52.756Z,20.25
2019-05-06T19:18:49.477Z,20.25
2019-05-06T19:19:46.702Z,20.19
2019-05-06T19:20:43.423Z,20.19
2019-05-06T19:21:40.143Z,20.19
2019-05-06T19:22:36.876Z,20.19
2019-05-06T19:23:33.589Z,20.19
2019-05-06T19:24:30.305Z,20.19
2019-05-06T19:25:27.014Z,20.12
2019-05-06T19:26:23.725Z,20.12
2019-05-06T19:27:20.437Z,20.12
2019-05-06T19:28:17.149Z,20.12
2019-05-06T19:29:13.872Z,20.12
2019-05-06T19:30:12.844Z,20.12
2019-05-06T19:31:09.087Z,20.06
2019-05-06T19:32:05.797Z,20.06
2019-05-06T19:33:03.142Z,20.06
2019-05-06T19:33:59.945Z,20.06
2019-05-06T19:34:56.664Z,20.06
2019-05-06T19:35:53.371Z,20.06
2019-05-06T19:36:50.088Z,20.00
2019-05-06T19:37:46.791Z,20.00
2019-05-06T19:38:43.514Z,20.00
2019-05-06T19:39:40.229Z,20.00
2019-05-06T19:40:36.938Z,20.00
2019-05-06T19:41:33.661Z,20.00
2019-05-06T19:42:43.652Z,20.00
2019-05-06T19:43:28.914Z,19.94
2019-05-06T19:44:25.630Z,19.94
2019-05-06T19:45:22.512Z,19.94
2019-05-06T19:46:19.242Z,19.94
2019-05-06T19:47:15.965Z,19.94
2019-05-06T19:48:13.348Z,19.94
2019-05-06T19:49:10.229Z,19.94
2019-05-06T19:50:06.856Z,19.87
2019-05-06T19:51:03.565Z,19.87
2019-05-06T19:52:00.275Z,19.87
2019-05-06T19:52:56.982Z,19.87